createdAt,value
2022-08-25T00:11:26.078Z,3.67
2022-08-25T00:26:28.568Z,4.37
2022-08-25T00:41:30.087Z,3.53
2022-08-25T00:56:31.594Z,4.63
2022-08-25T01:11:33.084Z,4.17
2022-08-25T01:26:34.570Z,3.90
2022-08-25T01:41:36.055Z,4.30
2022-08-25T01:56:37.635Z,4.57
2022-08-25T02:11:39.125Z,5.03
2022-08-25T02:26:40.686Z,4.60
2022-08-25T02:41:42.186Z,4.10
2022-08-25T02:56:44.226Z,5.47
2022-08-25T03:11:46.223Z,4.47
2022-08-25T03:26:47.720Z,4.53
2022-08-25T03:41:49.202Z,5.33
2022-08-25T03:56:50.686Z,4.70
2022-08-25T04:11:53.522Z,5.17
2022-08-25T04:26:55.133Z,5.10
2022-08-25T04:41:56.621Z,4.67
2022-08-25T04:56:58.970Z,4.67
2022-08-25T05:12:00.537Z,5.10
2022-08-25T05:27:02.044Z,4.47
2022-08-25T05:42:03.541Z,4.90
2022-08-25T05:57:05.035Z,4.17
2022-08-25T06:12:06.682Z,5.67
2022-08-25T06:27:09.012Z,5.10
2022-08-25T06:42:10.493Z,7.03
2022-08-25T06:57:11.983Z,10.07
2022-08-25T07:12:13.751Z,5.77
2022-08-25T07:27:15.252Z,5.57
2022-08-25T07:42:16.743Z,6.70
2022-08-25T07:57:20.023Z,8.07
2022-08-25T08:12:21.506Z,5.00
2022-08-25T08:27:24.210Z,5.00
2022-08-25T08:42:25.742Z,5.73
2022-08-25T08:57:27.225Z,5.23
2022-08-25T09:12:29.408Z,5.57
2022-08-25T09:27:31.693Z,5.13
2022-08-25T09:42:33.177Z,6.07
2022-08-25T09:57:34.658Z,4.50
2022-08-25T10:12:36.154Z,6.57
2022-08-25T10:27:37.646Z,5.80
2022-08-25T10:42:39.218Z,6.17
2022-08-25T10:57:44.257Z,5.93
2022-08-25T11:12:45.753Z,5.20
2022-08-25T11:27:47.240Z,5.63
2022-08-25T11:42:48.734Z,4.90
2022-08-25T11:57:53.237Z,5.97
2022-08-25T12:12:55.199Z,5.73
2022-08-25T12:27:56.736Z,5.10
2022-08-25T12:42:58.777Z,6.03
2022-08-25T12:58:01.014Z,4.37
2022-08-25T13:13:02.501Z,5.00
2022-08-25T13:28:04.007Z,4.70
2022-08-25T13:43:05.493Z,5.47
2022-08-25T13:58:07.324Z,4.40
2022-08-25T14:13:15.849Z,6.33
2022-08-25T14:28:20.612Z,4.70
2022-08-25T14:43:23.865Z,4.27
2022-08-25T14:58:26.655Z,4.93
2022-08-25T15:13:28.381Z,4.47
2022-08-25T15:28:29.930Z,4.60
2022-08-25T15:43:32.274Z,4.50
2022-08-25T15:58:33.757Z,9.80
2022-08-25T16:13:35.453Z,6.73
2022-08-25T16:28:36.994Z,6.03
2022-08-25T16:43:38.482Z,6.00
2022-08-25T16:58:39.969Z,7.23
2022-08-25T17:13:44.351Z,8.43
2022-08-25T17:28:46.241Z,6.57
2022-08-25T17:43:47.750Z,5.63
2022-08-25T17:58:49.631Z,6.70
2022-08-25T18:13:51.179Z,7.60
2022-08-25T18:28:52.663Z,5.53
2022-08-25T18:43:54.136Z,6.40
2022-08-25T18:58:55.628Z,6.80
2022-08-25T19:13:57.113Z,5.77
2022-08-25T19:28:58.723Z,6.37
2022-08-25T19:44:00.874Z,5.17
2022-08-25T19:59:02.624Z,4.83
2022-08-25T20:14:04.905Z,5.80
2022-08-25T20:29:06.390Z,4.47
2022-08-25T20:44:08.977Z,4.70
2022-08-25T20:59:11.595Z,5.27
2022-08-25T21:14:13.276Z,6.13
2022-08-25T21:29:15.027Z,4.40
2022-08-25T21:44:16.935Z,6.37
2022-08-25T21:59:19.295Z,6.00
2022-08-25T22:14:20.781Z,6.70
2022-08-25T22:29:24.752Z,6.87
2022-08-25T22:44:27.165Z,6.30
2022-08-25T22:59:28.692Z,9.70
2022-08-25T23:14:30.277Z,9.80
2022-08-25T23:29:31.757Z,8.70
2022-08-25T23:44:33.243Z,9.00
2022-08-25T23:59:34.728Z,11.77
